Time;durP1;ratioP1;P1;durP2;ratioP2;P2;SDS_P1;SDS_P2;PMS_P1;PMS_P2;Temp;Humidity;BMP_temperature;BMP_pressure;BME280_temperature;BME280_humidity;BME280_pressure;Samples;Min_cycle;Max_cycle;Signal;HPM_P1;HPM_P2
2022/08/09 00:02:07;;;;;;;5.82;2.83;;;14.50;99.90;;;;;;5034601;28;20049;-68
2022/08/09 00:04:33;;;;;;;4.07;2.70;;;14.40;99.90;;;;;;5052726;28;20041;-67
2022/08/09 00:07:03;;;;;;;4.57;2.80;;;14.40;99.90;;;;;;5052677;28;20040;-68
2022/08/09 00:09:28;;;;;;;5.40;3.17;;;14.40;99.90;;;;;;5052680;28;20094;-67
2022/08/09 00:11:54;;;;;;;4.55;2.75;;;14.40;99.90;;;;;;5052727;28;20396;-68
2022/08/09 00:14:20;;;;;;;4.53;2.92;;;14.40;99.90;;;;;;5052681;28;20484;-68
2022/08/09 00:16:46;;;;;;;4.68;2.45;;;14.40;99.90;;;;;;5052613;28;20492;-68
2022/08/09 00:19:11;;;;;;;6.00;2.63;;;14.40;99.90;;;;;;5052190;28;20408;-68
2022/08/09 00:21:37;;;;;;;8.25;2.90;;;14.40;99.90;;;;;;5052311;28;20128;-68
2022/08/09 00:24:04;;;;;;;7.43;3.00;;;14.30;99.90;;;;;;5052474;28;20045;-67
2022/08/09 00:26:30;;;;;;;4.53;2.67;;;14.30;99.90;;;;;;5052182;28;20041;-67
2022/08/09 00:28:57;;;;;;;4.30;2.58;;;14.20;99.90;;;;;;5053343;28;20484;-68
2022/08/09 00:31:24;;;;;;;2.88;2.20;;;14.20;99.90;;;;;;5038096;28;20404;-68
2022/08/09 00:33:51;;;;;;;6.50;2.78;;;14.20;99.90;;;;;;5037916;28;20118;-68
2022/08/09 00:36:17;;;;;;;4.53;2.67;;;14.20;99.90;;;;;;5056200;28;20044;-68
2022/08/09 00:38:44;;;;;;;4.72;3.25;;;14.10;99.90;;;;;;5056099;28;20120;-68
2022/08/09 00:41:10;;;;;;;4.47;3.25;;;14.10;99.90;;;;;;5056077;28;20128;-67
2022/08/09 00:43:36;;;;;;;6.43;3.20;;;14.10;99.90;;;;;;5055700;28;20048;-68
2022/08/09 00:46:07;;;;;;;4.88;2.90;;;14.10;99.90;;;;;;5038119;28;20131;-68
2022/08/09 00:48:32;;;;;;;5.75;3.28;;;14.00;99.90;;;;;;5055565;28;20044;-68
2022/08/09 00:51:02;;;;;;;4.32;2.92;;;14.10;99.90;;;;;;5055617;28;20041;-67
2022/08/09 00:53:29;;;;;;;4.45;2.58;;;14.00;99.90;;;;;;5055820;28;20122;-67
2022/08/09 00:55:54;;;;;;;4.53;2.60;;;14.00;99.90;;;;;;5055815;28;20464;-67
2022/08/09 00:58:20;;;;;;;5.28;2.63;;;14.00;99.90;;;;;;5055752;28;20072;-67
2022/08/09 01:00:48;;;;;;;4.72;2.97;;;14.00;99.90;;;;;;5055579;28;20037;-67
2022/08/09 01:03:38;;;;;;;4.28;2.47;;;14.00;99.90;;;;;;5055601;28;20080;-67
2022/08/09 01:06:10;;;;;;;5.75;2.92;;;14.00;99.90;;;;;;5055640;28;20484;-67
2022/08/09 01:09:07;;;;;;;4.00;2.90;;;14.00;99.90;;;;;;5055604;28;20037;-67
2022/08/09 01:11:54;;;;;;;3.65;2.63;;;14.00;99.90;;;;;;5055452;28;20041;-67
2022/08/09 01:14:28;;;;;;;4.82;2.17;;;14.00;99.90;;;;;;5055455;28;20048;-67
2022/08/09 01:17:08;;;;;;;5.15;2.70;;;14.00;99.90;;;;;;5055155;28;20102;-67
2022/08/09 01:19:56;;;;;;;4.47;2.30;;;14.00;99.90;;;;;;5055067;28;20506;-67
2022/08/09 01:22:28;;;;;;;5.63;2.78;;;14.00;99.90;;;;;;5055137;28;20131;-68
2022/08/09 01:25:16;;;;;;;4.45;2.42;;;13.90;99.90;;;;;;5055202;28;20098;-67
2022/08/09 01:27:46;;;;;;;4.50;2.33;;;13.90;99.90;;;;;;5055165;28;20087;-67
2022/08/09 01:30:12;;;;;;;3.30;2.33;;;14.00;99.90;;;;;;5055179;28;20041;-67
2022/08/09 01:32:44;;;;;;;5.07;2.70;;;13.90;99.90;;;;;;5054750;28;20084;-67
2022/08/09 01:35:21;;;;;;;4.10;2.42;;;13.90;99.90;;;;;;5054743;28;20055;-67
2022/08/09 01:37:50;;;;;;;5.00;2.53;;;13.90;99.90;;;;;;5055010;28;20407;-67
2022/08/09 01:40:18;;;;;;;4.57;2.80;;;13.90;99.90;;;;;;5054044;28;20048;-67
2022/08/09 01:42:45;;;;;;;5.43;2.80;;;14.00;99.90;;;;;;5054817;28;20461;-67
2022/08/09 01:45:12;;;;;;;6.10;1.73;;;14.00;99.90;;;;;;5054639;28;20439;-68
2022/08/09 01:47:40;;;;;;;3.85;2.47;;;14.00;99.90;;;;;;5054783;28;20445;-67
2022/08/09 01:50:08;;;;;;;4.18;2.10;;;14.00;99.90;;;;;;5054528;28;20053;-67
2022/08/09 01:52:35;;;;;;;3.92;1.85;;;13.90;99.90;;;;;;5054707;28;20049;-67
2022/08/09 01:55:04;;;;;;;4.07;2.17;;;13.90;99.90;;;;;;5054331;28;20048;-67
2022/08/09 01:57:38;;;;;;;4.35;2.10;;;13.90;99.90;;;;;;5054557;28;20045;-67
2022/08/09 02:00:07;;;;;;;5.85;2.55;;;13.90;99.90;;;;;;5054623;28;20458;-67
2022/08/09 02:02:37;;;;;;;5.10;2.75;;;13.80;99.90;;;;;;5054421;28;20449;-67
2022/08/09 02:05:06;;;;;;;4.22;2.75;;;13.80;99.90;;;;;;5036758;28;20088;-67
2022/08/09 02:07:34;;;;;;;3.85;2.63;;;13.80;99.90;;;;;;5054414;28;20044;-67
2022/08/09 02:10:05;;;;;;;3.72;2.60;;;13.80;99.90;;;;;;5054107;28;20033;-67
2022/08/09 02:12:33;;;;;;;5.65;2.80;;;13.80;99.90;;;;;;5054064;28;20120;-67
2022/08/09 02:15:02;;;;;;;5.38;2.95;;;13.80;99.90;;;;;;5054315;28;20037;-67
2022/08/09 02:17:30;;;;;;;4.13;2.60;;;13.80;99.90;;;;;;5054238;28;20048;-67
2022/08/09 02:19:57;;;;;;;3.88;2.65;;;13.90;99.90;;;;;;5053794;28;20048;-67
2022/08/09 02:22:58;;;;;;;4.60;2.78;;;13.90;99.90;;;;;;5053818;28;20103;-67
2022/08/09 02:25:28;;;;;;;4.70;2.75;;;13.90;99.90;;;;;;5011407;28;20052;-67
2022/08/09 02:28:04;;;;;;;6.68;3.88;;;13.80;99.90;;;;;;5053744;28;20044;-67
2022/08/09 02:30:42;;;;;;;4.75;2.58;;;13.80;99.90;;;;;;5035900;28;20099;-66
2022/08/09 02:33:17;;;;;;;10.20;3.42;;;13.80;99.90;;;;;;5053964;28;20492;-67
2022/08/09 02:35:45;;;;;;;5.38;3.15;;;13.80;99.90;;;;;;5053884;28;20036;-67
2022/08/09 02:38:14;;;;;;;5.45;3.63;;;13.80;99.90;;;;;;5053838;28;20045;-67
2022/08/09 02:40:42;;;;;;;5.75;3.33;;;13.80;99.90;;;;;;5053400;28;20123;-67
2022/08/09 02:43:09;;;;;;;4.53;2.97;;;13.80;99.90;;;;;;5053696;28;20084;-67
2022/08/09 02:45:41;;;;;;;7.18;3.92;;;13.70;99.90;;;;;;5053396;28;20049;-67
2022/08/09 02:48:12;;;;;;;6.07;3.88;;;13.80;99.90;;;;;;5053353;28;20047;-67
2022/08/09 02:50:46;;;;;;;6.85;4.00;;;13.70;99.90;;;;;;5035553;28;20480;-67
2022/08/09 02:53:24;;;;;;;4.60;3.28;;;13.70;99.90;;;;;;5052660;28;20098;-67
2022/08/09 02:55:51;;;;;;;7.20;3.50;;;13.70;99.90;;;;;;5053300;28;20040;-67
2022/08/09 02:58:19;;;;;;;7.47;3.42;;;13.70;99.90;;;;;;5053495;28;20041;-67
2022/08/09 03:00:46;;;;;;;6.55;3.58;;;13.70;99.90;;;;;;5053483;28;20107;-67
2022/08/09 03:03:13;;;;;;;4.97;3.30;;;13.70;99.90;;;;;;5053390;28;20079;-67
2022/08/09 03:05:40;;;;;;;6.47;3.47;;;13.60;99.90;;;;;;5053373;28;20033;-67
2022/08/09 03:08:09;;;;;;;6.25;3.17;;;13.60;99.90;;;;;;5053408;28;20041;-67
2022/08/09 03:10:36;;;;;;;7.38;3.30;;;13.60;99.90;;;;;;5053279;28;20041;-67
2022/08/09 03:13:03;;;;;;;4.00;2.65;;;13.60;99.90;;;;;;5053308;28;20439;-67
2022/08/09 03:15:29;;;;;;;3.92;2.47;;;13.60;99.90;;;;;;5053185;28;20040;-67
2022/08/09 03:17:55;;;;;;;7.65;3.05;;;13.60;99.90;;;;;;5052977;28;20392;-67
2022/08/09 03:20:22;;;;;;;3.47;2.08;;;13.60;99.90;;;;;;5052820;28;20051;-68
2022/08/09 03:22:49;;;;;;;5.10;2.28;;;13.60;99.90;;;;;;5053038;28;20134;-67
2022/08/09 03:25:14;;;;;;;6.32;2.28;;;13.60;99.90;;;;;;5053058;28;20106;-67
2022/08/09 03:27:47;;;;;;;3.63;2.22;;;13.60;99.90;;;;;;5035219;28;20036;-67
2022/08/09 03:30:14;;;;;;;5.45;2.45;;;13.60;99.90;;;;;;5053093;28;20045;-67
2022/08/09 03:32:40;;;;;;;3.85;2.42;;;13.60;99.90;;;;;;5052768;28;20041;-67
2022/08/09 03:35:10;;;;;;;5.30;2.72;;;13.60;99.90;;;;;;5053027;28;20064;-67
2022/08/09 03:37:36;;;;;;;5.82;2.72;;;13.60;99.90;;;;;;5052890;28;20041;-67
2022/08/09 03:40:03;;;;;;;5.35;2.55;;;13.50;99.90;;;;;;5052693;28;20041;-67
2022/08/09 03:42:28;;;;;;;5.10;2.42;;;13.50;99.90;;;;;;5052466;28;20059;-67
2022/08/09 03:44:54;;;;;;;4.70;2.08;;;13.50;99.90;;;;;;5052729;28;20138;-67
2022/08/09 03:47:20;;;;;;;4.72;2.45;;;13.50;99.90;;;;;;5052965;28;20099;-67
2022/08/09 03:49:48;;;;;;;2.50;1.48;;;13.50;99.90;;;;;;5052596;28;20120;-69
2022/08/09 03:52:15;;;;;;;2.63;1.45;;;13.50;99.90;;;;;;5052858;28;20044;-67
2022/08/09 03:54:43;;;;;;;2.22;1.35;;;13.50;99.90;;;;;;5052516;28;20044;-67
2022/08/09 03:57:11;;;;;;;2.28;1.40;;;13.50;99.90;;;;;;5052847;28;20073;-67
2022/08/09 03:59:37;;;;;;;2.30;1.17;;;13.50;99.90;;;;;;5052858;28;20044;-67
2022/08/09 04:02:04;;;;;;;1.42;0.82;;;13.50;99.90;;;;;;5052508;28;20041;-68
2022/08/09 04:04:31;;;;;;;1.88;0.95;;;13.40;99.90;;;;;;5054707;28;20084;-67
2022/08/09 04:06:57;;;;;;;2.22;1.02;;;13.40;99.90;;;;;;5056734;28;20476;-67
2022/08/09 04:09:24;;;;;;;1.65;1.08;;;13.40;99.90;;;;;;5056309;28;20060;-66
2022/08/09 04:11:50;;;;;;;2.40;1.10;;;13.40;99.90;;;;;;5056592;28;20134;-67
2022/08/09 04:14:20;;;;;;;1.70;1.05;;;13.40;99.90;;;;;;5056570;28;20076;-68
2022/08/09 04:16:46;;;;;;;1.33;0.98;;;13.40;99.90;;;;;;5038615;28;20489;-67
2022/08/09 04:19:12;;;;;;;1.70;1.13;;;13.40;99.90;;;;;;5056137;28;20064;-67
2022/08/09 04:21:38;;;;;;;1.98;1.20;;;13.30;99.90;;;;;;5056434;28;20262;-67
2022/08/09 04:24:05;;;;;;;1.88;1.08;;;13.40;99.90;;;;;;5038448;28;20044;-66
2022/08/09 04:26:32;;;;;;;1.80;1.17;;;13.40;99.90;;;;;;5056250;28;20457;-67
2022/08/09 04:28:58;;;;;;;1.92;1.13;;;13.40;99.90;;;;;;5038558;28;20048;-67
2022/08/09 04:31:25;;;;;;;1.98;1.00;;;13.40;99.90;;;;;;5056252;28;20391;-67
2022/08/09 04:33:51;;;;;;;5.50;0.95;;;13.40;99.90;;;;;;5056172;28;20381;-67
2022/08/09 04:36:17;;;;;;;2.47;1.15;;;13.60;99.90;;;;;;5056094;28;20083;-67
2022/08/09 04:38:43;;;;;;;2.20;1.40;;;13.30;99.90;;;;;;5056049;28;20076;-67
2022/08/09 04:41:09;;;;;;;2.03;1.25;;;13.30;99.90;;;;;;5055773;28;20041;-66
2022/08/09 04:43:34;;;;;;;2.60;1.23;;;13.30;99.90;;;;;;5055840;28;20043;-67
2022/08/09 04:46:00;;;;;;;1.95;1.10;;;13.30;99.90;;;;;;5055968;28;20032;-67
2022/08/09 04:48:26;;;;;;;3.03;1.30;;;13.40;99.90;;;;;;5037793;28;20047;-67
2022/08/09 04:50:52;;;;;;;2.17;1.23;;;13.40;99.90;;;;;;5055834;28;20095;-67
2022/08/09 04:53:18;;;;;;;2.63;1.05;;;13.30;99.90;;;;;;5055824;28;20033;-66
2022/08/09 04:55:43;;;;;;;2.88;1.40;;;13.40;99.90;;;;;;5055693;28;20090;-67
2022/08/09 04:58:09;;;;;;;2.38;1.00;;;13.40;99.90;;;;;;5055403;28;20044;-67
2022/08/09 05:00:35;;;;;;;2.20;1.25;;;13.60;99.90;;;;;;5055650;28;20075;-67
2022/08/09 05:03:05;;;;;;;4.07;1.40;;;13.50;99.90;;;;;;5055528;28;20126;-67
2022/08/09 05:05:31;;;;;;;2.95;1.40;;;13.60;99.90;;;;;;5055199;28;20084;-67
2022/08/09 05:07:57;;;;;;;2.00;1.20;;;13.60;99.90;;;;;;5055213;28;20033;-67
2022/08/09 05:10:23;;;;;;;2.35;1.40;;;13.90;99.90;;;;;;5055123;28;20037;-67
2022/08/09 05:12:49;;;;;;;2.42;1.38;;;13.60;99.90;;;;;;5055442;28;20411;-66
2022/08/09 05:15:15;;;;;;;2.20;1.23;;;13.60;99.90;;;;;;5054398;28;20090;-67
2022/08/09 05:17:41;;;;;;;3.50;1.25;;;13.70;99.90;;;;;;5055336;28;20423;-66
2022/08/09 05:20:08;;;;;;;2.03;1.27;;;13.70;99.90;;;;;;5055022;28;20407;-66
2022/08/09 05:22:34;;;;;;;4.63;1.85;;;13.80;99.90;;;;;;5037406;28;20048;-66
2022/08/09 05:25:01;;;;;;;2.63;1.70;;;13.80;99.90;;;;;;5054922;28;20471;-66
2022/08/09 05:27:26;;;;;;;2.63;1.73;;;13.90;99.90;;;;;;5055234;28;20036;-67
2022/08/09 05:29:52;;;;;;;2.38;1.58;;;14.00;99.90;;;;;;5055152;28;20455;-67
2022/08/09 05:32:18;;;;;;;3.92;1.80;;;14.10;99.90;;;;;;5037327;28;20029;-67
2022/08/09 05:34:44;;;;;;;3.55;1.75;;;14.20;99.90;;;;;;5055056;28;20116;-67
2022/08/09 05:37:10;;;;;;;4.45;1.92;;;14.30;99.90;;;;;;5037326;28;20041;-66
2022/08/09 05:39:38;;;;;;;2.33;1.58;;;14.30;99.90;;;;;;5054655;28;20040;-67
2022/08/09 05:42:04;;;;;;;5.47;2.00;;;14.50;99.90;;;;;;5054568;28;20033;-67
2022/08/09 05:44:29;;;;;;;6.03;2.50;;;14.50;99.90;;;;;;5036881;28;20045;-67
2022/08/09 05:46:55;;;;;;;4.10;2.00;;;14.60;99.90;;;;;;5054842;28;20402;-67
2022/08/09 05:49:21;;;;;;;6.78;1.98;;;14.70;99.90;;;;;;5054745;28;20040;-67
2022/08/09 05:51:46;;;;;;;5.70;2.45;;;14.80;99.90;;;;;;5054740;28;20047;-67
2022/08/09 05:54:12;;;;;;;6.72;2.40;;;14.90;99.90;;;;;;5054401;28;20128;-67
2022/08/09 05:56:38;;;;;;;4.40;2.38;;;15.00;99.90;;;;;;5054648;28;20052;-67
2022/08/09 05:59:03;;;;;;;3.25;1.80;;;15.10;99.90;;;;;;5054407;28;20068;-67
2022/08/09 06:01:29;;;;;;;3.92;2.25;;;15.20;99.90;;;;;;5054571;28;20431;-67
2022/08/09 06:03:55;;;;;;;3.85;2.33;;;15.40;99.90;;;;;;5054171;28;20096;-67
2022/08/09 06:06:22;;;;;;;3.72;2.05;;;15.30;99.90;;;;;;5054480;28;20036;-67
2022/08/09 06:08:48;;;;;;;3.17;2.05;;;15.60;99.90;;;;;;5054085;28;20087;-67
2022/08/09 06:11:14;;;;;;;3.70;2.05;;;15.50;99.90;;;;;;5054095;28;20032;-67
2022/08/09 06:13:40;;;;;;;4.28;2.08;;;15.60;99.90;;;;;;5054342;28;20081;-66
2022/08/09 06:16:06;;;;;;;3.40;2.13;;;15.60;99.90;;;;;;5054373;28;20068;-67
2022/08/09 06:18:33;;;;;;;4.55;2.53;;;15.80;99.90;;;;;;5053911;28;20436;-67
2022/08/09 06:21:00;;;;;;;5.70;2.25;;;15.80;99.90;;;;;;5053713;28;20053;-67
2022/08/09 06:23:28;;;;;;;3.67;2.17;;;15.90;99.90;;;;;;5054330;28;20424;-67
2022/08/09 06:25:54;;;;;;;3.15;1.88;;;16.00;99.90;;;;;;5054152;28;20037;-67
2022/08/09 06:28:20;;;;;;;3.78;1.88;;;16.20;99.90;;;;;;5053905;28;20385;-67
2022/08/09 06:30:45;;;;;;;2.30;1.88;;;16.30;99.90;;;;;;5053654;28;20033;-67
2022/08/09 06:33:11;;;;;;;2.83;1.88;;;16.40;99.90;;;;;;5053955;28;20037;-67
2022/08/09 06:35:37;;;;;;;3.95;2.20;;;16.60;99.90;;;;;;5053534;28;20408;-67
2022/08/09 06:38:03;;;;;;;2.90;1.80;;;16.70;99.90;;;;;;5053500;28;20116;-67
2022/08/09 06:40:28;;;;;;;2.90;1.85;;;16.90;99.90;;;;;;5019201;28;20053;-67
2022/08/09 06:42:54;;;;;;;3.60;1.90;;;17.00;99.90;;;;;;5053987;28;20048;-67
2022/08/09 06:45:20;;;;;;;3.42;1.80;;;17.20;99.90;;;;;;5053453;28;20041;-67
2022/08/09 06:47:47;;;;;;;3.13;1.95;;;17.40;99.90;;;;;;5035784;28;20463;-67
2022/08/09 06:50:13;;;;;;;2.55;1.67;;;17.40;99.90;;;;;;5053858;28;20037;-67
2022/08/09 06:52:44;;;;;;;3.92;2.10;;;17.60;99.90;;;;;;5053455;28;20041;-68
2022/08/09 06:55:13;;;;;;;;;;;17.70;99.90;;;;;;5053627;28;20041;-68
2022/08/09 06:57:39;;;;;;;6.20;1.92;;;17.70;99.90;;;;;;5053156;28;19999;-68
2022/08/09 07:00:06;;;;;;;3.35;1.98;;;17.90;99.90;;;;;;5053397;28;20064;-70
2022/08/09 07:02:32;;;;;;;2.28;1.67;;;18.10;99.90;;;;;;5053182;28;20408;-68
2022/08/09 07:04:58;;;;;;;2.88;1.50;;;18.30;99.90;;;;;;5053034;28;20037;-68
2022/08/09 07:07:24;;;;;;;4.20;2.00;;;18.50;99.90;;;;;;5053105;28;20041;-68
2022/08/09 07:09:50;;;;;;;2.67;1.42;;;18.60;99.90;;;;;;5053209;28;20041;-68
2022/08/09 07:12:16;;;;;;;2.47;1.30;;;18.60;99.90;;;;;;5035053;28;20236;-68
2022/08/09 07:14:41;;;;;;;1.85;1.45;;;18.80;99.90;;;;;;5053033;28;20503;-68
2022/08/09 07:17:07;;;;;;;2.45;1.08;;;18.90;99.90;;;;;;5052911;28;20398;-68
2022/08/09 07:19:33;;;;;;;1.67;0.95;;;19.20;99.90;;;;;;5052419;28;20060;-69
2022/08/09 07:21:59;;;;;;;1.45;1.00;;;19.30;99.90;;;;;;5052922;28;20048;-68
2022/08/09 07:24:26;;;;;;;2.83;1.10;;;19.40;99.90;;;;;;5052813;28;20373;-69
2022/08/09 07:26:52;;;;;;;2.20;1.00;;;19.50;99.90;;;;;;5052821;28;20134;-69
2022/08/09 07:29:18;;;;;;;1.45;0.90;;;19.70;99.90;;;;;;5052577;28;20080;-68
2022/08/09 07:31:44;;;;;;;1.45;0.82;;;19.80;99.90;;;;;;5052852;28;20086;-68
2022/08/09 07:34:09;;;;;;;4.88;1.00;;;19.80;99.90;;;;;;5034994;28;20057;-68
2022/08/09 07:36:35;;;;;;;1.90;0.80;;;20.10;99.90;;;;;;5052626;28;20040;-69
2022/08/09 07:39:02;;;;;;;2.30;0.90;;;20.00;99.90;;;;;;5052347;28;20049;-69
2022/08/09 07:41:27;;;;;;;4.50;1.10;;;19.90;99.90;;;;;;5052607;28;20075;-69
2022/08/09 07:43:53;;;;;;;1.27;0.88;;;19.80;99.90;;;;;;5052914;28;20488;-69
2022/08/09 07:46:19;;;;;;;1.73;0.90;;;20.00;99.90;;;;;;5052537;28;20048;-69
2022/08/09 07:48:45;;;;;;;0.82;0.65;;;19.80;99.90;;;;;;5052864;28;20043;-69
2022/08/09 07:51:11;;;;;;;2.38;0.95;;;20.30;99.90;;;;;;5052846;28;20438;-69
2022/08/09 07:53:38;;;;;;;1.27;0.73;;;20.40;99.90;;;;;;5052533;28;20041;-69
2022/08/09 07:56:04;;;;;;;1.00;0.52;;;20.50;99.90;;;;;;5052800;28;20099;-69
2022/08/09 07:58:30;;;;;;;0.80;0.57;;;20.40;99.90;;;;;;5052776;28;20087;-69
2022/08/09 08:00:55;;;;;;;0.60;0.55;;;20.30;99.90;;;;;;5052800;28;20445;-69
2022/08/09 08:03:21;;;;;;;0.90;0.80;;;20.60;99.90;;;;;;5052436;28;20064;-69
2022/08/09 08:05:47;;;;;;;0.98;0.50;;;;;;;;;;5052311;28;20044;-69
2022/08/09 08:08:13;;;;;;;1.52;0.60;;;;;;;;;;5052700;28;20533;-69
2022/08/09 08:10:39;;;;;;;0.35;0.35;;;20.70;99.90;;;;;;5052652;28;20037;-69
2022/08/09 08:13:05;;;;;;;1.00;0.60;;;20.80;99.90;;;;;;5052611;28;20373;-69
2022/08/09 08:15:30;;;;;;;1.30;0.50;;;20.70;99.90;;;;;;5052562;28;20469;-69
2022/08/09 08:17:56;;;;;;;0.60;0.40;;;20.40;99.90;;;;;;5034650;28;20558;-69
2022/08/09 08:20:24;;;;;;;1.02;0.77;;;20.30;99.90;;;;;;5052262;28;20501;-69
2022/08/09 08:22:50;;;;;;;0.70;0.50;;;20.50;99.90;;;;;;5034334;28;20053;-70
2022/08/09 08:25:16;;;;;;;0.60;0.30;;;20.70;99.90;;;;;;5052562;28;20044;-69
2022/08/09 08:27:42;;;;;;;1.13;0.52;;;21.00;99.90;;;;;;5052141;28;20115;-69
2022/08/09 08:30:08;;;;;;;1.45;0.63;;;20.90;99.90;;;;;;5052297;28;20037;-69
2022/08/09 08:32:34;;;;;;;0.77;0.57;;;20.80;99.90;;;;;;5052240;28;20041;-69
2022/08/09 08:34:59;;;;;;;0.68;0.38;;;21.00;99.90;;;;;;5052238;28;20102;-69
2022/08/09 08:37:27;;;;;;;0.73;0.50;;;21.00;99.90;;;;;;5051974;28;20044;-69
2022/08/09 08:39:53;;;;;;;0.40;0.40;;;21.00;99.90;;;;;;5052304;28;20392;-70
2022/08/09 08:42:20;;;;;;;0.25;0.22;;;20.90;99.90;;;;;;5052136;28;20044;-69
2022/08/09 08:44:54;;;;;;;0.52;0.22;;;21.10;99.90;;;;;;5052063;28;20079;-69
2022/08/09 08:47:20;;;;;;;0.95;0.47;;;21.20;99.90;;;;;;5052318;28;20051;-69
2022/08/09 08:49:46;;;;;;;0.47;0.40;;;21.10;99.90;;;;;;5052093;28;20029;-69
2022/08/09 08:52:14;;;;;;;0.40;0.25;;;20.90;99.90;;;;;;5055057;28;20071;-70
2022/08/09 08:54:40;;;;;;;0.52;0.32;;;20.90;99.90;;;;;;5037584;28;20048;-69
2022/08/09 08:57:08;;;;;;;1.55;0.38;;;21.00;99.90;;;;;;5055747;28;20040;-69
2022/08/09 08:59:33;;;;;;;0.60;0.40;;;21.00;99.90;;;;;;5055615;28;20573;-69
2022/08/09 09:02:00;;;;;;;1.27;0.38;;;21.20;99.90;;;;;;5055591;28;20041;-69
2022/08/09 09:04:31;;;;;;;0.70;0.40;;;21.40;99.90;;;;;;5037466;28;20037;-69
2022/08/09 09:07:01;;;;;;;0.30;0.30;;;21.50;99.90;;;;;;5037446;28;20076;-69
2022/08/09 09:09:28;;;;;;;0.30;0.30;;;21.50;99.90;;;;;;5055463;28;20126;-69
2022/08/09 09:11:57;;;;;;;0.28;0.25;;;21.60;99.90;;;;;;5055411;28;20037;-70
2022/08/09 09:14:25;;;;;;;0.22;0.22;;;21.70;99.90;;;;;;5055094;28;20123;-69
2022/08/09 09:16:51;;;;;;;1.00;0.52;;;21.80;99.90;;;;;;5055006;28;20052;-69
2022/08/09 09:19:17;;;;;;;1.65;0.40;;;21.80;99.90;;;;;;5055094;28;20089;-69
2022/08/09 09:22:18;;;;;;;0.43;0.40;;;21.90;99.90;;;;;;5054906;28;20073;-69
2022/08/09 09:24:47;;;;;;;;;;;22.00;99.90;;;;;;5006231;28;20053;-69
2022/08/09 09:27:19;;;;;;;2.33;0.40;;;22.00;99.90;;;;;;5037036;28;19917;-69
2022/08/09 09:29:46;;;;;;;0.45;0.40;;;22.20;99.90;;;;;;5054810;28;20267;-68
2022/08/09 09:32:17;;;;;;;0.50;0.40;;;22.20;99.90;;;;;;5054764;28;20043;-69
2022/08/09 09:34:59;;;;;;;0.30;0.22;;;22.20;99.90;;;;;;5055019;28;20391;-69
2022/08/09 09:37:29;;;;;;;0.88;0.30;;;22.10;99.90;;;;;;5055056;28;20065;-69
2022/08/09 09:39:55;;;;;;;0.50;0.35;;;22.00;99.90;;;;;;5055329;28;20036;-69
2022/08/09 09:42:23;;;;;;;0.65;0.35;;;21.80;99.90;;;;;;5054886;28;20515;-68
2022/08/09 09:44:55;;;;;;;1.20;0.30;;;21.60;99.90;;;;;;5036668;28;20068;-69
2022/08/09 09:47:21;;;;;;;0.30;0.30;;;21.60;99.90;;;;;;5054867;28;20037;-69
2022/08/09 09:49:52;;;;;;;0.50;0.30;;;21.70;99.90;;;;;;5055027;28;20120;-69
2022/08/09 09:52:18;;;;;;;0.77;0.25;;;21.60;99.90;;;;;;5054482;28;20037;-69
2022/08/09 09:54:46;;;;;;;0.22;0.22;;;21.70;99.90;;;;;;5054422;28;20045;-69
2022/08/09 09:57:16;;;;;;;0.52;0.40;;;21.70;99.90;;;;;;5054612;28;20041;-69
2022/08/09 09:59:43;;;;;;;0.43;0.35;;;21.90;99.90;;;;;;5054493;28;20098;-69
2022/08/09 10:02:10;;;;;;;0.63;0.40;;;22.00;99.90;;;;;;5053968;28;20037;-69
2022/08/09 10:04:36;;;;;;;0.20;0.20;;;22.10;99.90;;;;;;5036168;28;20049;-69
2022/08/09 10:07:02;;;;;;;0.43;0.40;;;22.20;99.90;;;;;;5054392;28;20029;-69
2022/08/09 10:09:46;;;;;;;0.30;0.30;;;22.30;99.90;;;;;;5054243;28;20428;-69
2022/08/09 10:12:26;;;;;;;0.70;0.30;;;22.10;99.90;;;;;;5054332;28;20246;-69
2022/08/09 10:15:05;;;;;;;1.73;0.40;;;22.10;99.90;;;;;;5053886;28;20045;-69
2022/08/09 10:17:33;;;;;;;0.40;0.30;;;22.30;99.90;;;;;;5053956;28;20048;-68
2022/08/09 10:20:01;;;;;;;1.02;0.45;;;22.40;99.90;;;;;;5036000;28;20053;-69
2022/08/09 10:22:37;;;;;;;0.38;0.25;;;22.40;99.90;;;;;;5054085;28;20041;-69
2022/08/09 10:25:07;;;;;;;0.52;0.38;;;22.60;99.90;;;;;;5053709;28;20107;-69
2022/08/09 10:27:33;;;;;;;;;;;22.70;99.90;;;;;;5054202;28;20082;-68
2022/08/09 10:30:01;;;;;;;0.20;0.20;;;;;;;;;;5054055;28;20314;-69
2022/08/09 10:32:27;;;;;;;0.85;0.47;;;;;;;;;;5035815;28;20146;-69
2022/08/09 10:34:54;;;;;;;0.55;0.30;;;;;;;;;;5053596;28;20087;-69
2022/08/09 10:37:20;;;;;;;4.32;0.50;;;;;;;;;;5053895;28;20033;-69
2022/08/09 10:39:48;;;;;;;0.22;0.22;;;;;;;;;;5053800;28;20387;-69
2022/08/09 10:42:14;;;;;;;0.30;0.30;;;;;;;;;;5053836;28;20041;-69
2022/08/09 10:44:43;;;;;;;0.38;0.30;;;;;;;;;;5053378;28;20087;-69
2022/08/09 10:47:37;;;;;;;0.30;0.30;;;;;;;;;;5053687;28;20493;-68
2022/08/09 10:50:18;;;;;;;0.30;0.25;;;;;;;;;;5053332;28;20078;-69
2022/08/09 10:52:47;;;;;;;0.30;0.30;;;;;;;;;;5035454;28;20412;-69
2022/08/09 10:55:20;;;;;;;1.10;0.50;;;;;;;;;;5035425;28;20044;-69
2022/08/09 10:57:46;;;;;;;0.55;0.40;;;;;;;;;;5035377;28;20468;-69
2022/08/09 11:00:32;;;;;;;0.40;0.40;;;;;;;;;;5053147;28;20043;-69
2022/08/09 11:02:58;;;;;;;0.43;0.30;;;;;;;;;;5053442;28;20560;-70
2022/08/09 11:05:26;;;;;;;3.65;0.40;;;;;;;;;;5053450;28;20033;-69
2022/08/09 11:07:52;;;;;;;0.45;0.35;;;;;;;;;;5035921;28;20102;-69
2022/08/09 11:10:37;;;;;;;0.30;0.30;;;;;;;;;;5053342;28;20077;-69
2022/08/09 11:13:19;;;;;;;0.20;0.20;;;;;;;;;;5052708;28;20404;-69
2022/08/09 11:15:45;;;;;;;0.22;0.22;;;;;;;;;;5035430;28;20544;-69
2022/08/09 11:18:31;;;;;;;0.50;0.30;;;;;;;;;;5035023;28;20051;-69
2022/08/09 11:20:57;;;;;;;0.75;0.52;;;;;;;;;;5052748;28;20053;-69
2022/08/09 11:23:23;;;;;;;0.38;0.30;;;;;;;;;;5034945;28;20041;-69
2022/08/09 11:25:49;;;;;;;0.60;0.40;;;;;;;;;;5053179;28;20087;-69
2022/08/09 11:28:33;;;;;;;0.20;0.20;;;;;;;;;;5053146;28;20422;-68
2022/08/09 11:31:00;;;;;;;0.25;0.25;;;;;;;;;;5034862;28;20377;-69
2022/08/09 11:33:26;;;;;;;0.20;0.20;;;;;;;;;;5053100;28;20403;-69
2022/08/09 11:35:52;;;;;;;0.63;0.40;;;;;;;;;;5053059;28;20048;-69
2022/08/09 11:38:22;;;;;;;0.50;0.38;;;;;;;;;;5035194;28;20045;-69
2022/08/09 11:40:50;;;;;;;0.20;0.20;;;;;;;;;;5052945;28;20040;-69
2022/08/09 11:43:17;;;;;;;0.25;0.25;;;;;;;;;;5052887;28;20052;-69
2022/08/09 11:45:59;;;;;;;0.30;0.30;;;;;;;;;;5052876;28;20512;-68
2022/08/09 11:48:29;;;;;;;0.70;0.50;;;;;;;;;;5034738;28;20037;-69
2022/08/09 11:50:58;;;;;;;0.93;0.40;;;;;;;;;;5052862;28;20581;-69
2022/08/09 11:53:25;;;;;;;0.20;0.20;;;;;;;;;;5052578;28;20041;-69
2022/08/09 11:55:53;;;;;;;0.30;0.30;;;23.70;99.90;;;;;;5052856;28;20507;-70
2022/08/09 11:58:18;;;;;;;0.52;0.40;;;23.60;99.90;;;;;;5052689;28;20511;-69
2022/08/09 12:00:48;;;;;;;0.63;0.40;;;23.50;99.90;;;;;;5052766;28;20041;-69
2022/08/09 12:03:20;;;;;;;0.30;0.30;;;23.70;99.90;;;;;;5052721;28;20048;-69
2022/08/09 12:05:46;;;;;;;0.30;0.30;;;23.60;99.90;;;;;;5052365;28;20033;-69
2022/08/09 12:08:13;;;;;;;0.50;0.30;;;23.80;99.90;;;;;;5052718;28;20180;-69
2022/08/09 12:10:48;;;;;;;0.38;0.32;;;23.80;99.90;;;;;;5052597;28;20396;-69
2022/08/09 12:13:33;;;;;;;0.47;0.30;;;;;;;;;;5052302;28;20048;-69
2022/08/09 12:16:03;;;;;;;0.40;0.30;;;;;;;;;;5052573;28;20128;-69
2022/08/09 12:18:30;;;;;;;0.70;0.38;;;;;;;;;;5052563;28;20045;-69
2022/08/09 12:20:56;;;;;;;0.90;0.50;;;;;;;;;;5052250;28;20060;-68
2022/08/09 12:23:23;;;;;;;0.55;0.40;;;;;;;;;;5052166;28;20041;-69
2022/08/09 12:25:50;;;;;;;0.82;0.50;;;;;;;;;;5054728;28;20040;-69
2022/08/09 12:28:20;;;;;;;0.70;0.40;;;;;;;;;;5056403;28;20037;-69
2022/08/09 12:30:46;;;;;;;0.32;0.30;;;;;;;;;;5056295;28;20110;-71
2022/08/09 12:33:12;;;;;;;1.15;0.43;;;;;;;;;;5055879;28;20077;-69
2022/08/09 12:35:39;;;;;;;0.68;0.30;;;;;;;;;;5055841;28;20048;-69
2022/08/09 12:38:21;;;;;;;0.50;0.40;;;;;;;;;;5055895;28;20124;-69
2022/08/09 12:40:49;;;;;;;0.43;0.30;;;;;;;;;;5055821;28;20124;-70
2022/08/09 12:43:16;;;;;;;0.68;0.38;;;;;;;;;;5055801;28;20107;-69
2022/08/09 12:45:44;;;;;;;0.30;0.30;;;;;;;;;;5055727;28;20045;-69
2022/08/09 12:48:10;;;;;;;0.65;0.30;;;;;;;;;;5037739;28;20040;-68
2022/08/09 12:50:37;;;;;;;0.43;0.32;;;;;;;;;;5055978;28;20045;-70
2022/08/09 12:53:04;;;;;;;1.27;0.40;;;;;;;;;;5038123;28;20052;-69
2022/08/09 12:55:31;;;;;;;0.65;0.38;;;;;;;;;;5037945;28;20045;-69
2022/08/09 12:57:58;;;;;;;0.30;0.20;;;;;;;;;;5055587;28;20447;-69
2022/08/09 13:00:33;;;;;;;0.32;0.30;;;;;;;;;;5055821;28;20408;-69
2022/08/09 13:03:05;;;;;;;0.85;0.30;;;;;;;;;;5055542;28;20080;-68
2022/08/09 13:05:41;;;;;;;0.40;0.40;;;;;;;;;;5055632;28;20045;-68
2022/08/09 13:08:13;;;;;;;0.52;0.40;;;;;;;;;;5055599;28;20033;-69
2022/08/09 13:10:50;;;;;;;0.75;0.40;;;;;;;;;;5055527;28;20048;-68
2022/08/09 13:13:26;;;;;;;0.32;0.32;;;;;;;;;;5037365;28;20045;-69
2022/08/09 13:15:54;;;;;;;0.80;0.50;;;;;;;;;;5055256;28;20131;-69